Time;durP1;ratioP1;P1;durP2;ratioP2;P2;SDS_P1;SDS_P2;PMS_P1;PMS_P2;Temp;Humidity;BMP_temperature;BMP_pressure;BME280_temperature;BME280_humidity;BME280_pressure;Samples;Min_cycle;Max_cycle;Signal;HPM_P1;HPM_P2
2023/01/08 00:01:25;;;;;;;;;;;10.70;99.90;;;;;;5095026;28;19908;-67
2023/01/08 00:03:50;;;;;;;;;;;10.70;99.90;;;;;;5095217;28;19915;-67
2023/01/08 00:06:17;;;;;;;;;;;10.80;99.90;;;;;;5076806;28;19931;-67
2023/01/08 00:08:43;;;;;;;;;;;10.70;99.90;;;;;;5095192;28;19973;-67
2023/01/08 00:11:08;;;;;;;;;;;10.80;99.90;;;;;;5094848;28;20369;-67
2023/01/08 00:13:34;;;;;;;;;;;10.70;99.90;;;;;;5094828;28;19951;-67
2023/01/08 00:16:03;;;;;;;;;;;10.70;99.90;;;;;;5094786;28;19908;-67
2023/01/08 00:18:29;;;;;;;;;;;10.70;99.90;;;;;;5094726;28;19915;-67
2023/01/08 00:20:54;;;;;;;;;;;10.70;99.90;;;;;;5094938;28;19908;-67
2023/01/08 00:23:20;;;;;;;;;;;10.70;99.90;;;;;;5094669;28;19908;-67
2023/01/08 00:25:45;;;;;;;;;;;10.70;99.90;;;;;;5076291;28;20377;-67
2023/01/08 00:28:13;;;;;;;;;;;10.70;99.90;;;;;;5094625;28;19908;-67
2023/01/08 00:30:39;;;;;;;;;;;10.70;99.90;;;;;;5094453;28;19977;-67
2023/01/08 00:33:05;;;;;;;;;;;10.80;99.90;;;;;;5094346;28;20440;-67
2023/01/08 00:35:30;;;;;;;;;;;10.80;99.90;;;;;;5094049;28;19915;-67
2023/01/08 00:37:56;;;;;;;;;;;10.70;99.90;;;;;;5094418;28;20387;-68
2023/01/08 00:40:21;;;;;;;;;;;10.70;99.90;;;;;;5094379;28;19908;-67
2023/01/08 00:42:47;;;;;;;;;;;10.70;99.90;;;;;;5094236;28;19908;-67
2023/01/08 00:45:12;;;;;;;;;;;10.70;99.90;;;;;;5094460;28;19916;-67
2023/01/08 00:47:38;;;;;;;;;;;10.60;99.90;;;;;;5094491;28;19908;-67
2023/01/08 00:50:03;;;;;;;;;;;10.50;99.90;;;;;;5094177;28;20280;-67
2023/01/08 00:52:29;;;;;;;;;;;10.60;99.90;;;;;;5076184;28;19908;-67
2023/01/08 00:54:54;;;;;;;;;;;10.50;99.90;;;;;;5094124;28;19931;-67
2023/01/08 00:57:20;;;;;;;;;;;10.50;99.90;;;;;;5094111;28;20354;-67
2023/01/08 00:59:45;;;;;;;;;;;10.50;99.90;;;;;;5094288;28;19959;-67
2023/01/08 01:02:11;;;;;;;;;;;10.50;99.90;;;;;;5094276;28;20366;-67
2023/01/08 01:04:36;;;;;;;;;;;10.50;99.90;;;;;;5094166;28;20284;-67
2023/01/08 01:07:02;;;;;;;;;;;10.50;99.90;;;;;;5093985;28;19916;-67
2023/01/08 01:09:28;;;;;;;;;;;10.50;99.90;;;;;;5075901;28;19957;-66
2023/01/08 01:11:53;;;;;;;;;;;10.50;99.90;;;;;;5094184;28;19957;-67
2023/01/08 01:14:19;;;;;;;;;;;10.50;99.90;;;;;;5075721;28;19916;-68
2023/01/08 01:16:47;;;;;;;;;;;10.40;99.90;;;;;;5094085;28;19951;-67
2023/01/08 01:19:13;;;;;;;;;;;10.40;99.90;;;;;;5094075;28;19962;-67
2023/01/08 01:21:38;;;;;;;;;;;10.50;99.90;;;;;;5075774;28;19912;-68
2023/01/08 01:24:04;;;;;;;;;;;10.40;99.90;;;;;;5093688;28;19917;-67
2023/01/08 01:26:30;;;;;;;;;;;10.40;99.90;;;;;;5093818;28;19915;-67
2023/01/08 01:28:56;;;;;;;;;;;10.50;99.90;;;;;;5093955;28;19908;-67
2023/01/08 01:31:22;;;;;;;;;;;10.50;99.90;;;;;;5093659;28;19908;-67
2023/01/08 01:33:48;;;;;;;;;;;10.50;99.90;;;;;;5093925;28;19916;-67
2023/01/08 01:36:14;;;;;;;;;;;10.50;99.90;;;;;;5093893;28;19908;-67
2023/01/08 01:38:42;;;;;;;;;;;10.50;99.90;;;;;;5093907;28;20276;-67
2023/01/08 01:41:16;;;;;;;;;;;10.50;99.90;;;;;;5093861;28;20273;-67
2023/01/08 01:43:42;;;;;;;;;;;10.50;99.90;;;;;;5093813;28;19908;-67
2023/01/08 01:46:28;;;;;;;;;;;10.50;99.90;;;;;;5094570;28;19912;-67
2023/01/08 01:48:57;;;;;;;;;;;10.50;99.90;;;;;;5097451;28;19912;-67
2023/01/08 01:51:25;;;;;;;;;;;10.50;99.90;;;;;;5097820;28;19912;-67
2023/01/08 01:53:51;;;;;;;;;;;10.50;99.90;;;;;;5097783;28;19915;-67
2023/01/08 01:56:16;;;;;;;;;;;10.50;99.90;;;;;;5097529;28;20365;-67
2023/01/08 01:58:42;;;;;;;;;;;10.50;99.90;;;;;;5097716;28;20323;-68
2023/01/08 02:01:08;;;;;;;;;;;10.50;99.90;;;;;;5097652;28;19923;-67
2023/01/08 02:03:35;;;;;;;;;;;10.50;99.90;;;;;;5097327;28;19934;-67
2023/01/08 02:06:09;;;;;;;;;;;10.50;99.90;;;;;;5097229;28;19920;-68
2023/01/08 02:08:41;;;;;;;;;;;10.50;99.90;;;;;;5097265;28;19996;-67
2023/01/08 02:11:11;;;;;;;;;;;10.50;99.90;;;;;;5097198;28;19989;-67
2023/01/08 02:13:39;;;;;;;;;;;10.50;99.90;;;;;;5097137;28;19915;-67
2023/01/08 02:16:24;;;;;;;;;;;10.50;99.90;;;;;;5097101;28;19939;-67
2023/01/08 02:18:54;;;;;;;;;;;10.50;99.90;;;;;;5096983;28;19912;-67
2023/01/08 02:21:26;;;;;;;;;;;10.40;99.90;;;;;;5097051;28;19909;-67
2023/01/08 02:23:56;;;;;;;;;;;10.50;99.90;;;;;;5096644;28;19914;-67
2023/01/08 02:26:25;;;;;;;;;;;10.40;99.90;;;;;;5096914;28;19912;-67
2023/01/08 02:29:02;;;;;;;;;;;10.40;99.90;;;;;;5097156;28;19908;-67
2023/01/08 02:31:28;;;;;;;;;;;10.50;99.90;;;;;;5079032;28;19915;-67
2023/01/08 02:33:54;;;;;;;;;;;10.50;99.90;;;;;;5097081;28;19962;-67
2023/01/08 02:36:39;;;;;;;;;;;10.50;99.90;;;;;;5096738;28;20285;-67
2023/01/08 02:39:15;;;;;;;;;;;10.50;99.90;;;;;;5096658;28;19955;-67
2023/01/08 02:42:00;;;;;;;;;;;10.50;99.90;;;;;;5097122;28;19923;-68
2023/01/08 02:44:33;;;;;;;;;;;10.50;99.90;;;;;;5096379;28;19961;-67
2023/01/08 02:46:59;;;;;;;;;;;10.50;99.90;;;;;;5096532;28;19912;-67
2023/01/08 02:49:29;;;;;;;;;;;10.50;99.90;;;;;;5096490;28;19916;-67
2023/01/08 02:51:56;;;;;;;;;;;10.60;99.90;;;;;;5096713;28;20357;-67
2023/01/08 02:54:25;;;;;;;;;;;10.50;99.90;;;;;;5096651;28;19908;-67
2023/01/08 02:56:54;;;;;;;;;;;10.50;99.90;;;;;;5095832;28;19908;-67
2023/01/08 02:59:19;;;;;;;;;;;10.50;99.90;;;;;;5096279;28;19908;-67
2023/01/08 03:01:45;;;;;;;;;;;10.50;99.90;;;;;;5096256;28;20010;-67
2023/01/08 03:04:19;;;;;;;;;;;10.50;99.90;;;;;;5096413;28;19908;-67
2023/01/08 03:06:45;;;;;;;;;;;10.50;99.90;;;;;;5096125;28;19989;-67
2023/01/08 03:09:11;;;;;;;;;;;10.50;99.90;;;;;;5096138;28;20378;-67
2023/01/08 03:11:40;;;;;;;;;;;10.60;99.90;;;;;;5096267;28;20258;-67
2023/01/08 03:14:13;;;;;;;;;;;10.60;99.90;;;;;;5096265;28;19939;-67
2023/01/08 03:16:44;;;;;;;;;;;10.60;99.90;;;;;;5096023;28;19914;-67
2023/01/08 03:19:13;;;;;;;;;;;10.60;99.90;;;;;;5096187;28;19999;-67
2023/01/08 03:21:39;;;;;;;;;;;10.50;99.90;;;;;;5096153;28;20319;-67
2023/01/08 03:24:05;;;;;;;;;;;10.60;99.90;;;;;;5095777;28;19927;-67
2023/01/08 03:26:31;;;;;;;;;;;10.60;99.90;;;;;;5095765;28;19908;-67
2023/01/08 03:28:57;;;;;;;;;;;10.60;99.90;;;;;;5077646;28;19970;-67
2023/01/08 03:31:25;;;;;;;;;;;10.60;99.90;;;;;;5095667;28;19912;-68
2023/01/08 03:33:50;;;;;;;;;;;10.50;99.90;;;;;;5095631;28;19958;-67
2023/01/08 03:36:19;;;;;;;;;;;10.50;99.90;;;;;;5095543;28;19915;-67
2023/01/08 03:38:49;;;;;;;;;;;10.50;99.90;;;;;;5095486;28;20365;-67
2023/01/08 03:41:17;;;;;;;;;;;10.50;99.90;;;;;;5095703;28;19916;-67
2023/01/08 03:43:43;;;;;;;;;;;10.40;99.90;;;;;;5095435;28;19939;-67
2023/01/08 03:46:15;;;;;;;;;;;10.40;99.90;;;;;;5095293;28;19970;-67
2023/01/08 03:48:41;;;;;;;;;;;10.40;99.90;;;;;;5095336;28;19953;-67
2023/01/08 03:51:07;;;;;;;;;;;10.40;99.90;;;;;;5095536;28;19908;-67
2023/01/08 03:53:32;;;;;;;;;;;10.40;99.90;;;;;;5095516;28;19931;-67
2023/01/08 03:55:58;;;;;;;;;;;10.40;99.90;;;;;;5095205;28;19908;-67
2023/01/08 03:58:23;;;;;;;;;;;10.40;99.90;;;;;;5076987;28;20286;-67
2023/01/08 04:00:49;;;;;;;;;;;10.40;99.90;;;;;;5095364;28;19916;-67
2023/01/08 04:03:14;;;;;;;;;;;10.40;99.90;;;;;;5095028;28;19912;-67
2023/01/08 04:05:40;;;;;;;;;;;10.40;99.90;;;;;;5094950;28;19981;-67
2023/01/08 04:08:05;;;;;;;;;;;10.30;99.90;;;;;;5094802;28;19908;-67
2023/01/08 04:10:31;;;;;;;;;;;10.30;99.90;;;;;;5094737;28;19957;-67
2023/01/08 04:12:56;;;;;;;;;;;10.30;99.90;;;;;;5094840;28;19908;-67
2023/01/08 04:15:21;;;;;;;;;;;10.40;99.90;;;;;;5094824;28;19994;-67
2023/01/08 04:17:47;;;;;;;;;;;10.30;99.90;;;;;;5094755;28;19908;-67
2023/01/08 04:20:12;;;;;;;;;;;10.40;99.90;;;;;;5094799;28;20384;-67
2023/01/08 04:22:38;;;;;;;;;;;10.40;99.90;;;;;;5094682;28;19909;-67
2023/01/08 04:25:03;;;;;;;;;;;10.40;99.90;;;;;;5094498;28;19967;-67
2023/01/08 04:27:29;;;;;;;;;;;10.40;99.90;;;;;;5094596;28;20257;-68
2023/01/08 04:29:54;;;;;;;;;;;10.30;99.90;;;;;;5094537;28;19908;-67
2023/01/08 04:32:20;;;;;;;;;;;10.30;99.90;;;;;;5094544;28;19908;-67
2023/01/08 04:34:45;;;;;;;;;;;10.40;99.90;;;;;;5094759;28;19908;-68
2023/01/08 04:37:11;;;;;;;;;;;10.40;99.90;;;;;;5094707;28;19930;-67
2023/01/08 04:39:36;;;;;;;;;;;10.40;99.90;;;;;;5094505;28;20406;-67
2023/01/08 04:42:02;;;;;;;;;;;10.40;99.90;;;;;;5094361;28;19937;-67
2023/01/08 04:44:27;;;;;;;;;;;10.40;99.90;;;;;;5094471;28;19912;-67
2023/01/08 04:46:52;;;;;;;;;;;10.40;99.90;;;;;;5094261;28;20297;-67
2023/01/08 04:49:18;;;;;;;;;;;10.30;99.90;;;;;;5094514;28;19943;-67
2023/01/08 04:51:44;;;;;;;;;;;10.40;99.90;;;;;;5094465;28;20374;-67
2023/01/08 04:54:09;;;;;;;;;;;10.40;99.90;;;;;;5094428;28;20010;-66
2023/01/08 04:56:35;;;;;;;;;;;10.30;99.90;;;;;;5076055;28;19915;-67
2023/01/08 04:59:00;;;;;;;;;;;10.40;99.90;;;;;;5075948;28;19908;-67
2023/01/08 05:01:42;;;;;;;;;;;10.40;99.90;;;;;;5076322;28;19999;-67
2023/01/08 05:04:09;;;;;;;;;;;10.40;99.90;;;;;;5094200;28;19907;-67
2023/01/08 05:06:35;;;;;;;;;;;10.40;99.90;;;;;;5094236;28;19978;-67
2023/01/08 05:09:00;;;;;;;;;;;10.40;99.90;;;;;;5094193;28;19909;-67
2023/01/08 05:11:26;;;;;;;;;;;10.40;99.90;;;;;;5094173;28;19963;-67
2023/01/08 05:13:51;;;;;;;;;;;10.40;99.90;;;;;;5093870;28;19912;-67
2023/01/08 05:16:17;;;;;;;;;;;10.40;99.90;;;;;;5094102;28;19908;-67
2023/01/08 05:18:43;;;;;;;;;;;10.50;99.90;;;;;;5094129;28;19913;-67
2023/01/08 05:21:09;;;;;;;;;;;10.50;99.90;;;;;;5093895;28;19915;-67
2023/01/08 05:23:34;;;;;;;;;;;10.50;99.90;;;;;;5093547;28;19908;-67
2023/01/08 05:26:01;;;;;;;;;;;10.50;99.90;;;;;;5093664;28;19958;-67
2023/01/08 05:28:26;;;;;;;;;;;10.50;99.90;;;;;;5093975;28;19908;-67
2023/01/08 05:30:52;;;;;;;;;;;10.50;99.90;;;;;;5093691;28;20381;-67
2023/01/08 05:33:18;;;;;;;;;;;10.60;99.90;;;;;;5093630;28;19908;-67
2023/01/08 05:35:44;;;;;;;;;;;10.50;99.90;;;;;;5093870;28;19912;-67
2023/01/08 05:38:09;;;;;;;;;;;10.60;99.90;;;;;;5093589;28;19908;-67
2023/01/08 05:40:34;;;;;;;;;;;10.60;99.90;;;;;;5093864;28;19912;-67
2023/01/08 05:43:00;;;;;;;;;;;10.50;99.90;;;;;;5075571;28;19947;-67
2023/01/08 05:45:26;;;;;;;;;;;10.60;99.90;;;;;;5093729;28;19916;-67
2023/01/08 05:47:51;;;;;;;;;;;10.60;99.90;;;;;;5093574;28;19908;-67
2023/01/08 05:50:17;;;;;;;;;;;10.60;99.90;;;;;;5093784;28;19908;-67
2023/01/08 05:52:42;;;;;;;;;;;10.50;99.90;;;;;;5093531;28;19919;-67
2023/01/08 05:55:08;;;;;;;;;;;10.60;99.90;;;;;;5093464;28;19908;-67
2023/01/08 05:57:33;;;;;;;;;;;10.60;99.90;;;;;;5093448;28;20334;-67
2023/01/08 05:59:59;;;;;;;;;;;10.50;99.90;;;;;;5093406;28;19931;-66
2023/01/08 06:02:24;;;;;;;;;;;10.50;99.90;;;;;;5093379;28;19931;-67
2023/01/08 06:04:50;;;;;;;;;;;10.50;99.90;;;;;;5093280;28;20007;-67
2023/01/08 06:07:15;;;;;;;;;;;10.40;99.90;;;;;;5093361;28;19915;-67
2023/01/08 06:09:41;;;;;;;;;;;10.40;99.90;;;;;;5093327;28;19908;-67
2023/01/08 06:12:06;;;;;;;;;;;10.40;99.90;;;;;;5093659;28;19914;-66
2023/01/08 06:14:32;;;;;;;;;;;10.40;99.90;;;;;;5093331;28;19908;-67
2023/01/08 06:16:57;;;;;;;;;;;10.40;99.90;;;;;;5075246;28;19908;-67
2023/01/08 06:19:22;;;;;;;;;;;10.40;99.90;;;;;;5093587;28;19969;-67
2023/01/08 06:21:48;;;;;;;;;;;10.30;99.90;;;;;;5093497;28;20004;-67
2023/01/08 06:24:14;;;;;;;;;;;10.30;99.90;;;;;;5093070;28;19921;-67
2023/01/08 06:26:39;;;;;;;;;;;10.30;99.90;;;;;;5093206;28;19957;-67
2023/01/08 06:29:05;;;;;;;;;;;10.30;99.90;;;;;;5093149;28;20021;-68
2023/01/08 06:31:30;;;;;;;;;;;10.30;99.90;;;;;;5093438;28;19916;-67
2023/01/08 06:33:55;;;;;;;;;;;10.30;99.90;;;;;;5096861;28;19991;-67
2023/01/08 06:36:21;;;;;;;;;;;10.30;99.90;;;;;;5096793;28;19908;-66
2023/01/08 06:38:46;;;;;;;;;;;10.30;99.90;;;;;;5096999;28;20273;-67
2023/01/08 06:41:12;;;;;;;;;;;10.20;99.90;;;;;;5096927;28;19915;-66
2023/01/08 06:43:37;;;;;;;;;;;10.30;99.90;;;;;;5096902;28;20377;-67
2023/01/08 06:46:03;;;;;;;;;;;10.20;99.90;;;;;;5096779;28;19923;-66
2023/01/08 06:48:29;;;;;;;;;;;10.30;99.90;;;;;;5096772;28;19908;-67
2023/01/08 06:50:56;;;;;;;;;;;10.30;99.90;;;;;;5096734;28;19908;-67
2023/01/08 06:53:22;;;;;;;;;;;10.20;99.90;;;;;;5096498;28;19915;-67
2023/01/08 06:55:47;;;;;;;;;;;10.20;99.90;;;;;;5096621;28;19978;-66
2023/01/08 06:58:13;;;;;;;;;;;10.20;99.90;;;;;;5096337;28;20381;-67
2023/01/08 07:00:38;;;;;;;;;;;10.10;99.90;;;;;;5096560;28;19908;-67
2023/01/08 07:03:04;;;;;;;;;;;10.10;99.90;;;;;;5096486;28;20062;-67
2023/01/08 07:05:29;;;;;;;;;;;10.10;99.90;;;;;;5096383;28;19950;-67
2023/01/08 07:07:55;;;;;;;;;;;10.10;99.90;;;;;;5096179;28;19947;-66
2023/01/08 07:10:21;;;;;;;;;;;10.10;99.90;;;;;;5096336;28;19931;-67
2023/01/08 07:12:47;;;;;;;;;;;10.10;99.90;;;;;;5096043;28;19908;-67
2023/01/08 07:15:12;;;;;;;;;;;10.00;99.90;;;;;;5096038;28;19916;-67
2023/01/08 07:17:37;;;;;;;;;;;10.00;99.90;;;;;;5095959;28;20443;-67
2023/01/08 07:20:03;;;;;;;;;;;10.00;99.90;;;;;;5095910;28;19919;-67
2023/01/08 07:22:29;;;;;;;;;;;10.00;99.90;;;;;;5095845;28;19994;-67
2023/01/08 07:24:54;;;;;;;;;;;10.00;99.90;;;;;;5095667;28;19920;-67
2023/01/08 07:27:20;;;;;;;;;;;10.00;99.90;;;;;;5096032;28;19909;-67
2023/01/08 07:29:45;;;;;;;;;;;9.90;99.90;;;;;;5095716;28;19908;-66
2023/01/08 07:32:11;;;;;;;;;;;9.90;99.90;;;;;;5095938;28;19908;-67
2023/01/08 07:34:36;;;;;;;;;;;9.80;99.90;;;;;;5095637;28;19908;-67
2023/01/08 07:37:02;;;;;;;;;;;9.90;99.90;;;;;;5095578;28;19908;-67
2023/01/08 07:39:28;;;;;;;;;;;10.00;99.90;;;;;;5095527;28;19908;-67
2023/01/08 07:41:53;;;;;;;;;;;10.00;99.90;;;;;;5095492;28;19912;-68
2023/01/08 07:44:18;;;;;;;;;;;9.90;99.90;;;;;;5095339;28;20399;-67
2023/01/08 07:46:44;;;;;;;;;;;9.90;99.90;;;;;;5095375;28;19908;-68
2023/01/08 07:49:10;;;;;;;;;;;10.00;99.90;;;;;;5077633;28;20365;-67
2023/01/08 07:51:36;;;;;;;;;;;10.00;99.90;;;;;;5095562;28;19993;-67
2023/01/08 07:54:01;;;;;;;;;;;10.10;99.90;;;;;;5095523;28;19908;-67
2023/01/08 07:56:26;;;;;;;;;;;10.10;99.90;;;;;;5095510;28;19987;-67
2023/01/08 07:58:52;;;;;;;;;;;10.10;99.90;;;;;;5095231;28;20430;-67
2023/01/08 08:01:17;;;;;;;;;;;10.10;99.90;;;;;;5095374;28;19908;-67
2023/01/08 08:03:43;;;;;;;;;;;10.10;99.90;;;;;;5095343;28;19912;-67
2023/01/08 08:06:08;;;;;;;;;;;10.10;99.90;;;;;;5095066;28;19912;-67
2023/01/08 08:08:34;;;;;;;;;;;10.10;99.90;;;;;;5095264;28;19908;-67
2023/01/08 08:11:00;;;;;;;;;;;10.10;99.90;;;;;;5095221;28;20281;-66
2023/01/08 08:13:25;;;;;;;;;;;10.10;99.90;;;;;;5095180;28;19915;-66
2023/01/08 08:15:51;;;;;;;;;;;10.00;99.90;;;;;;5095123;28;20357;-67
2023/01/08 08:18:16;;;;;;;;;;;9.80;99.90;;;;;;5094810;28;20358;-67
2023/01/08 08:20:42;;;;;;;;;;;9.70;99.90;;;;;;5095032;28;19912;-67
2023/01/08 08:23:09;;;;;;;;;;;9.60;99.90;;;;;;5094994;28;19915;-66
2023/01/08 08:25:35;;;;;;;;;;;9.60;99.90;;;;;;5094483;28;19950;-67
2023/01/08 08:28:01;;;;;;;;;;;9.50;99.90;;;;;;5094878;28;20360;-66
2023/01/08 08:30:27;;;;;;;;;;;9.50;99.90;;;;;;5094528;28;19915;-67
2023/01/08 08:32:52;;;;;;;;;;;9.50;99.90;;;;;;5094536;28;20017;-67
2023/01/08 08:35:18;;;;;;;;;;;9.50;99.90;;;;;;5094726;28;20301;-66
2023/01/08 08:37:44;;;;;;;;;;;9.50;99.90;;;;;;5094458;28;19998;-67
2023/01/08 08:40:09;;;;;;;;;;;9.50;99.90;;;;;;5094369;28;19908;-67
2023/01/08 08:42:35;;;;;;;;;;;9.50;99.90;;;;;;5094627;28;19909;-66
2023/01/08 08:45:00;;;;;;;;;;;9.50;99.90;;;;;;5094487;28;19920;-66
2023/01/08 08:47:26;;;;;;;;;;;9.50;99.90;;;;;;5094547;28;20262;-66
2023/01/08 08:49:51;;;;;;;;;;;9.60;99.90;;;;;;5094529;28;19915;-67
2023/01/08 08:52:16;;;;;;;;;;;9.60;99.90;;;;;;5094186;28;20321;-67
2023/01/08 08:54:42;;;;;;;;;;;9.60;99.90;;;;;;5093997;28;19908;-67
2023/01/08 08:57:08;;;;;;;;;;;9.60;99.90;;;;;;5094126;28;19916;-66
2023/01/08 08:59:34;;;;;;;;;;;9.50;99.90;;;;;;5094347;28;19912;-67
2023/01/08 09:02:00;;;;;;;;;;;9.60;99.90;;;;;;5094071;28;19908;-66
2023/01/08 09:04:28;;;;;;;;;;;9.50;99.90;;;;;;5094205;28;20002;-66
2023/01/08 09:06:53;;;;;;;;;;;9.50;99.90;;;;;;5075945;28;20007;-67
2023/01/08 09:09:19;;;;;;;;;;;9.50;99.90;;;;;;5093955;28;19908;-67
2023/01/08 09:11:44;;;;;;;;;;;9.40;99.90;;;;;;5075888;28;19909;-66
2023/01/08 09:14:09;;;;;;;;;;;9.40;99.90;;;;;;5094154;28;19962;-66
2023/01/08 09:16:38;;;;;;;;;;;9.30;99.90;;;;;;5093798;28;20289;-66
2023/01/08 09:19:05;;;;;;;;;;;9.30;99.90;;;;;;5093766;28;19912;-66
2023/01/08 09:21:30;;;;;;;;;;;9.30;99.90;;;;;;5075780;28;19922;-66
2023/01/08 09:23:56;;;;;;;;;;;9.30;99.90;;;;;;5093598;28;19920;-66
2023/01/08 09:26:21;;;;;;;;;;;9.60;99.90;;;;;;5093659;28;19908;-66
2023/01/08 09:28:47;;;;;;;;;;;10.10;99.90;;;;;;5093933;28;20007;-66
2023/01/08 09:31:12;;;;;;;;;;;10.40;99.90;;;;;;5093672;28;20002;-66
2023/01/08 09:33:38;;;;;;;;;;;10.60;99.90;;;;;;5093956;28;19909;-66
2023/01/08 09:36:03;;;;;;;;;;;10.70;99.90;;;;;;5093939;28;19912;-66
2023/01/08 09:38:29;;;;;;;;;;;10.90;99.90;;;;;;5093601;28;20387;-66
2023/01/08 09:40:57;;;;;;;;;;;11.20;99.90;;;;;;5093618;28;19999;-66
2023/01/08 09:43:24;;;;;;;;;;;11.60;99.90;;;;;;5093588;28;19908;-66
2023/01/08 09:45:53;;;;;;;;;;;12.10;99.90;;;;;;5093771;28;20311;-66
2023/01/08 09:48:22;;;;;;;;;;;11.90;99.90;;;;;;5093797;28;20269;-66
2023/01/08 09:50:48;;;;;;;;;;;12.40;99.90;;;;;;5093774;28;19948;-67
2023/01/08 09:53:15;;;;;;;;;;;12.60;99.90;;;;;;5093455;28;20404;-66
2023/01/08 09:55:41;;;;;;;;;;;12.70;99.90;;;;;;5093761;28;20364;-66
2023/01/08 09:58:26;;;;;;;;;;;12.80;99.90;;;;;;5093730;28;19908;-67
2023/01/08 10:00:53;;;;;;;;;;;12.80;99.90;;;;;;5093315;28;19943;-66
2023/01/08 10:03:28;;;;;;;;;;;12.80;99.90;;;;;;5093651;28;19915;-67
2023/01/08 10:05:54;;;;;;;;;;;13.10;99.90;;;;;;5093307;28;19977;-66
2023/01/08 10:08:19;;;;;;;;;;;13.10;99.90;;;;;;5096379;28;19908;-67
2023/01/08 10:10:45;;;;;;;;;;;13.20;99.90;;;;;;5097247;28;19908;-66
2023/01/08 10:13:11;;;;;;;;;;;13.30;99.90;;;;;;5097519;28;19908;-66
2023/01/08 10:15:38;;;;;;;;;;;13.10;99.90;;;;;;5097466;28;19908;-67
2023/01/08 10:18:06;;;;;;;;;;;13.20;99.90;;;;;;5079020;28;19919;-66
2023/01/08 10:20:32;;;;;;;;;;;12.90;99.90;;;;;;5097068;28;19915;-67
2023/01/08 10:23:13;;;;;;;;;;;13.50;99.90;;;;;;5097053;28;19909;-66
2023/01/08 10:25:58;;;;;;;;;;;13.70;99.90;;;;;;5096830;28;19928;-67
2023/01/08 10:28:24;;;;;;;;;;;13.90;99.90;;;;;;5096965;28;20280;-67
2023/01/08 10:30:51;;;;;;;;;;;14.10;99.90;;;;;;5096943;28;19912;-66
2023/01/08 10:33:18;;;;;;;;;;;14.30;99.90;;;;;;5097025;28;20436;-66
2023/01/08 10:35:51;;;;;;;;;;;14.00;99.90;;;;;;5096956;28;19912;-66
2023/01/08 10:38:25;;;;;;;;;;;13.20;99.90;;;;;;5096755;28;19961;-67
2023/01/08 10:40:51;;;;;;;;;;;13.50;99.90;;;;;;5097034;28;19908;-66
2023/01/08 10:43:18;;;;;;;;;;;13.70;99.90;;;;;;5096638;28;20365;-66
2023/01/08 10:45:53;;;;;;;;;;;14.30;99.90;;;;;;5096526;28;20069;-67
2023/01/08 10:48:19;;;;;;;;;;;14.30;99.90;;;;;;5096839;28;19951;-67
2023/01/08 10:50:45;;;;;;;;;;;14.10;99.90;;;;;;5096518;28;20418;-66
2023/01/08 10:53:27;;;;;;;;;;;13.60;99.90;;;;;;5096470;28;20282;-67
2023/01/08 10:55:57;;;;;;;;;;;14.20;99.90;;;;;;5096715;28;19908;-66
2023/01/08 10:58:23;;;;;;;;;;;13.50;99.90;;;;;;5096664;28;20376;-67
2023/01/08 11:00:48;;;;;;;;;;;13.40;99.90;;;;;;5096224;28;19908;-67
2023/01/08 11:03:30;;;;;;;;;;;13.30;99.90;;;;;;5096469;28;19994;-67
2023/01/08 11:05:56;;;;;;;;;;;13.40;99.90;;;;;;5096378;28;20377;-66
2023/01/08 11:08:21;;;;;;;;;;;13.60;99.90;;;;;;5096401;28;19935;-67
2023/01/08 11:10:55;;;;;;;;;;;13.90;99.90;;;;;;5096154;28;19916;-66
2023/01/08 11:13:21;;;;;;;;;;;13.70;99.90;;;;;;5096339;28;19908;-66
2023/01/08 11:15:58;;;;;;;;;;;12.60;99.90;;;;;;5096273;28;20324;-67
2023/01/08 11:18:24;;;;;;;;;;;12.50;99.90;;;;;;5095909;28;20373;-67
2023/01/08 11:20:51;;;;;;;;;;;12.40;99.90;;;;;;5095943;28;19919;-67
2023/01/08 11:23:18;;;;;;;;;;;12.70;99.90;;;;;;5096137;28;19918;-67
2023/01/08 11:25:47;;;;;;;;;;;13.00;99.90;;;;;;5095645;28;20016;-67
2023/01/08 11:28:15;;;;;;;;;;;12.90;99.90;;;;;;5096045;28;19908;-67
2023/01/08 11:30:43;;;;;;;;;;;13.30;99.90;;;;;;5096034;28;19908;-67
2023/01/08 11:33:13;;;;;;;;;;;13.40;99.90;;;;;;5095718;28;20320;-67
2023/01/08 11:35:43;;;;;;;;;;;13.10;99.90;;;;;;5095641;28;19908;-67
2023/01/08 11:38:10;;;;;;;;;;;13.10;99.90;;;;;;5095557;28;19912;-67
2023/01/08 11:40:56;;;;;;;;;;;12.80;99.90;;;;;;5095767;28;20250;-67
2023/01/08 11:43:26;;;;;;;;;;;12.70;99.90;;;;;;5095287;28;20366;-67
2023/01/08 11:45:59;;;;;;;;;;;12.40;99.90;;;;;;5095619;28;20393;-67
2023/01/08 11:48:44;;;;;;;;;;;12.50;99.90;;;;;;5095690;28;19918;-67
2023/01/08 11:51:21;;;;;;;;;;;12.50;99.90;;;;;;5095322;28;19915;-67
2023/01/08 11:53:56;;;;;;;;;;;12.80;99.90;;;;;;5095462;28;19957;-67
2023/01/08 11:56:37;;;;;;;;;;;12.80;99.90;;;;;;5095524;28;19908;-67
2023/01/08 11:59:22;;;;;;;;;;;12.70;99.90;;;;;;5095457;28;20258;-67
2023/01/08 12:01:58;;;;;;;;;;;12.60;99.90;;;;;;5095094;28;20262;-67
2023/01/08 12:04:36;;;;;;;;;;;12.80;99.90;;;;;;5076936;28;20369;-67
2023/01/08 12:07:21;;;;;;;;;;;12.70;99.90;;;;;;5095027;28;19908;-67
2023/01/08 12:10:07;;;;;;;;;;;13.00;99.90;;;;;;5076709;28;19908;-67
2023/01/08 12:12:45;;;;;;;;;;;12.80;99.90;;;;;;5094782;28;19908;-67
2023/01/08 12:15:18;;;;;;;;;;;12.80;99.90;;;;;;5094913;28;19912;-67
2023/01/08 12:17:59;;;;;;;;;;;12.70;99.90;;;;;;5095121;28;19912;-67
2023/01/08 12:20:35;;;;;;;;;;;12.60;99.90;;;;;;5076618;28;19908;-67
2023/01/08 12:23:10;;;;;;;;;;;12.40;99.90;;;;;;5095048;28;20281;-67
2023/01/08 12:28:33;;;;;;;;;;;12.10;99.90;;;;;;5071122;28;19913;-67
2023/01/08 12:31:16;;;;;;;;;;;12.10;99.90;;;;;;5070953;28;19913;-67
2023/01/08 12:33:48;;;;;;;;;;;12.00;99.90;;;;;;5071118;28;19960;-68
2023/01/08 12:36:17;;;;;;;;;;;11.80;99.90;;;;;;5070825;28;20382;-68
2023/01/08 12:38:45;;;;;;;;;;;11.90;99.90;;;;;;5071098;28;19939;-67
2023/01/08 12:41:13;;;;;;;;;;;11.80;99.90;;;;;;5071070;28;19915;-67
2023/01/08 12:43:44;;;;;;;;;;;11.80;99.90;;;;;;5070963;28;19947;-67
2023/01/08 12:46:11;;;;;;;;;;;11.70;99.90;;;;;;5070530;28;20449;-67
2023/01/08 12:48:37;;;;;;;;;;;11.70;99.90;;;;;;5070585;28;20010;-67
2023/01/08 12:51:04;;;;;;;;;;;11.60;99.90;;;;;;5070543;28;20007;-67
2023/01/08 12:53:50;;;;;;;;;;;11.50;99.90;;;;;;5070538;28;19909;-67
2023/01/08 12:56:35;;;;;;;;;;;11.60;99.90;;;;;;5070596;28;20385;-67
2023/01/08 12:59:21;;;;;;;;;;;11.60;99.90;;;;;;5070364;28;20422;-67
2023/01/08 13:01:49;;;;;;;;;;;11.50;99.90;;;;;;5070256;28;20366;-67
2023/01/08 13:04:15;;;;;;;;;;;11.60;99.90;;;;;;5070357;28;19913;-67
2023/01/08 13:06:49;;;;;;;;;;;11.70;99.90;;;;;;5070240;28;19920;-67
2023/01/08 13:09:20;;;;;;;;;;;11.70;99.90;;;;;;5070200;28;19912;-67
2023/01/08 13:11:49;;;;;;;;;;;11.90;99.90;;;;;;5070349;28;20011;-67
2023/01/08 13:14:16;;;;;;;;;;;12.00;99.90;;;;;;5070019;28;19919;-67
2023/01/08 13:16:44;;;;;;;;;;;12.10;99.90;;;;;;5070302;28;20464;-67
2023/01/08 13:19:26;;;;;;;;;;;12.20;99.90;;;;;;5069937;28;19908;-67
2023/01/08 13:21:53;;;;;;;;;;;12.30;99.90;;;;;;5069947;28;20416;-67
2023/01/08 13:24:25;;;;;;;;;;;12.10;99.90;;;;;;5070101;28;19916;-67
2023/01/08 13:26:51;;;;;;;;;;;12.00;99.90;;;;;;5078687;28;20409;-67
2023/01/08 13:29:34;;;;;;;;;;;12.00;99.90;;;;;;5090049;28;19909;-68
2023/01/08 13:32:00;;;;;;;;;;;12.10;99.90;;;;;;5090241;28;20003;-67
2023/01/08 13:34:41;;;;;;;;;;;12.00;99.90;;;;;;5090168;28;19952;-67
2023/01/08 13:37:07;;;;;;;;;;;11.80;99.90;;;;;;5089820;28;20007;-67
2023/01/08 13:39:34;;;;;;;;;;;11.80;99.90;;;;;;5076827;28;19908;-67
2023/01/08 13:42:01;;;;;;;;;;;11.70;99.90;;;;;;5076584;28;20293;-67
2023/01/08 13:44:30;;;;;;;;;;;11.70;99.90;;;;;;5076556;28;19909;-68
2023/01/08 13:46:57;;;;;;;;;;;11.60;99.90;;;;;;5076355;28;19916;-68
2023/01/08 13:49:43;;;;;;;;;;;11.50;99.90;;;;;;5076160;28;19908;-68
2023/01/08 13:52:28;;;;;;;;;;;11.50;99.90;;;;;;5076046;28;19908;-68
2023/01/08 13:54:53;;;;;;;;;;;11.10;99.90;;;;;;5075928;28;19951;-68
2023/01/08 13:57:19;;;;;;;;;;;10.70;99.90;;;;;;5076294;28;19940;-68
2023/01/08 13:59:51;;;;;;;;;;;10.50;99.90;;;;;;5076239;28;19955;-68
2023/01/08 14:02:21;;;;;;;;;;;10.30;99.90;;;;;;5076229;28;20330;-68
2023/01/08 14:04:48;;;;;;;;;;;10.10;99.90;;;;;;5076126;28;20388;-68
2023/01/08 14:07:14;;;;;;;;;;;10.00;99.90;;;;;;5076066;28;19919;-68
2023/01/08 14:09:39;;;;;;;;;;;10.00;99.90;;;;;;5076289;28;19909;-68
2023/01/08 14:12:07;;;;;;;;;;;9.90;99.90;;;;;;5075807;28;19951;-68
2023/01/08 14:14:37;;;;;;;;;;;9.80;99.90;;;;;;5075716;28;19909;-68
2023/01/08 14:17:03;;;;;;;;;;;9.80;99.90;;;;;;5075951;28;19908;-69
2023/01/08 14:19:28;;;;;;;;;;;9.90;99.90;;;;;;5075865;28;19999;-67
2023/01/08 14:21:56;;;;;;;;;;;9.90;99.90;;;;;;5075878;28;20007;-68
2023/01/08 14:24:23;;;;;;;;;;;9.90;99.90;;;;;;5075782;28;19909;-68
2023/01/08 14:26:52;;;;;;;;;;;9.90;99.90;;;;;;5075293;28;20007;-68